Time;durP1;ratioP1;P1;durP2;ratioP2;P2;SDS_P1;SDS_P2;PMS_P1;PMS_P2;Temp;Humidity;BMP_temperature;BMP_pressure;BME280_temperature;BME280_humidity;BME280_pressure;Samples;Min_cycle;Max_cycle;Signal;HPM_P1;HPM_P2
2022/07/28 00:02:14;;;;;;;;;;;23.10;49.10;;;;;;5139765;27;19904;-87
2022/07/28 00:04:39;;;;;;;;;;;22.90;49.30;;;;;;5137979;27;19907;-87
2022/07/28 00:07:05;;;;;;;;;;;22.80;49.50;;;;;;5120703;27;19932;-87
2022/07/28 00:09:31;;;;;;;;;;;22.60;49.60;;;;;;5119831;27;19903;-88
2022/07/28 00:11:56;;;;;;;;;;;22.60;49.60;;;;;;5120384;27;20217;-87
2022/07/28 00:14:23;;;;;;;;;;;22.60;49.90;;;;;;5121337;27;20405;-87
2022/07/28 00:16:48;;;;;;;;;;;22.60;49.80;;;;;;5121815;27;19903;-87
2022/07/28 00:19:14;;;;;;;;;;;22.60;49.80;;;;;;5121063;27;19980;-88
2022/07/28 00:21:39;;;;;;;;;;;22.60;49.80;;;;;;5121334;27;19904;-87
2022/07/28 00:24:05;;;;;;;;;;;22.60;49.60;;;;;;5121365;27;19949;-88
2022/07/28 00:26:31;;;;;;;;;;;22.60;49.50;;;;;;5121362;27;20238;-88
2022/07/28 00:28:57;;;;;;;;;;;22.50;49.70;;;;;;5121279;27;20355;-87
2022/07/28 00:31:22;;;;;;;;;;;22.50;49.70;;;;;;5120945;27;19915;-88
2022/07/28 00:33:48;;;;;;;;;;;22.50;49.80;;;;;;5121393;27;19907;-88
2022/07/28 00:36:14;;;;;;;;;;;22.50;49.70;;;;;;5119813;27;19903;-88
2022/07/28 00:38:40;;;;;;;;;;;22.60;49.70;;;;;;5119820;27;19964;-88
2022/07/28 00:41:12;;;;;;;;;;;22.60;49.80;;;;;;5122187;27;19904;-88
2022/07/28 00:43:40;;;;;;;;;;;22.60;49.90;;;;;;5121975;27;19965;-88
2022/07/28 00:46:08;;;;;;;;;;;22.60;49.70;;;;;;5140239;27;19903;-88
2022/07/28 00:48:37;;;;;;;;;;;22.60;49.60;;;;;;5121583;27;19914;-88
2022/07/28 00:51:03;;;;;;;;;;;22.60;49.80;;;;;;5122003;27;19911;-88
2022/07/28 00:53:29;;;;;;;;;;;22.60;49.80;;;;;;5121625;27;19914;-88
2022/07/28 00:55:56;;;;;;;;;;;22.60;49.70;;;;;;5121769;27;19930;-88
2022/07/28 00:58:22;;;;;;;;;;;22.60;49.90;;;;;;5122180;27;20204;-88
2022/07/28 01:00:47;;;;;;;;;;;22.60;49.80;;;;;;5122450;27;19952;-88
2022/07/28 01:03:14;;;;;;;;;;;22.70;49.90;;;;;;5121736;27;20204;-88
2022/07/28 01:05:48;;;;;;;;;;;22.70;49.90;;;;;;5122083;27;19910;-88
2022/07/28 01:08:40;;;;;;;;;;;22.70;49.80;;;;;;5122483;27;19915;-88
2022/07/28 01:11:06;;;;;;;;;;;22.70;49.90;;;;;;5117020;27;20004;-88
2022/07/28 01:13:45;;;;;;;;;;;22.70;49.90;;;;;;5122773;27;19931;-88
2022/07/28 01:16:11;;;;;;;;;;;22.70;50.30;;;;;;5122679;27;19914;-89
2022/07/28 01:18:56;;;;;;;;;;;22.60;49.90;;;;;;5122581;27;19911;-88
2022/07/28 01:21:27;;;;;;;;;;;22.60;49.70;;;;;;5122624;27;19983;-88
2022/07/28 01:23:59;;;;;;;;;;;22.50;49.90;;;;;;5121923;27;20261;-88
2022/07/28 01:26:28;;;;;;;;;;;22.50;50.10;;;;;;5122618;27;19903;-88
2022/07/28 01:28:53;;;;;;;;;;;22.50;50.10;;;;;;5122277;27;20238;-88
2022/07/28 01:31:22;;;;;;;;;;;22.50;50.10;;;;;;5140141;27;20315;-88
2022/07/28 01:33:50;;;;;;;;;;;22.50;50.10;;;;;;5122355;27;19903;-88
2022/07/28 01:36:17;;;;;;;;;;;22.50;50.00;;;;;;5140000;27;20273;-88
2022/07/28 01:38:45;;;;;;;;;;;22.50;50.00;;;;;;5139684;27;19910;-88
2022/07/28 01:41:13;;;;;;;;;;;22.50;50.10;;;;;;5121764;27;20234;-88
2022/07/28 01:43:41;;;;;;;;;;;22.50;50.10;;;;;;5121994;27;19922;-88
2022/07/28 01:46:07;;;;;;;;;;;22.50;50.20;;;;;;5140420;27;19907;-88
2022/07/28 01:48:40;;;;;;;;;;;22.50;50.20;;;;;;5121902;27;19958;-88
2022/07/28 01:51:06;;;;;;;;;;;22.50;50.10;;;;;;5122192;27;19910;-88
2022/07/28 01:53:32;;;;;;;;;;;22.50;50.10;;;;;;5122083;27;20280;-88
2022/07/28 01:55:58;;;;;;;;;;;22.50;50.20;;;;;;5122150;27;19904;-88
2022/07/28 01:58:40;;;;;;;;;;;22.50;50.20;;;;;;5121757;27;19903;-88
2022/07/28 02:01:05;;;;;;;;;;;22.50;50.20;;;;;;5122024;27;19957;-88
2022/07/28 02:03:33;;;;;;;;;;;22.40;50.00;;;;;;5121572;27;19918;-88
2022/07/28 02:06:01;;;;;;;;;;;22.30;50.20;;;;;;5121868;27;19907;-88
2022/07/28 02:08:34;;;;;;;;;;;22.40;50.20;;;;;;5121453;27;19981;-88
2022/07/28 02:13:45;;;;;;;;;;;22.40;50.20;;;;;;5139475;27;20295;-88
2022/07/28 02:16:11;;;;;;;;;;;22.40;50.20;;;;;;5121986;27;19907;-88
2022/07/28 02:18:38;;;;;;;;;;;22.40;50.20;;;;;;5138154;27;19936;-88
2022/07/28 02:21:04;;;;;;;;;;;22.40;50.20;;;;;;5138186;27;19942;-88
2022/07/28 02:23:46;;;;;;;;;;;22.30;50.30;;;;;;5119528;28;19915;-88
2022/07/28 02:26:13;;;;;;;;;;;22.30;50.20;;;;;;5138599;28;20259;-88
2022/07/28 02:28:42;;;;;;;;;;;22.30;50.40;;;;;;5120532;28;20272;-88
2022/07/28 02:31:15;;;;;;;;;;;22.30;50.40;;;;;;5120647;28;19925;-88
2022/07/28 02:33:43;;;;;;;;;;;22.30;50.30;;;;;;5138211;28;19933;-88
2022/07/28 02:36:14;;;;;;;;;;;22.10;50.30;;;;;;5138422;28;19936;-88
2022/07/28 02:38:44;;;;;;;;;;;22.00;50.50;;;;;;5138029;28;19926;-88
2022/07/28 02:41:15;;;;;;;;;;;22.00;50.60;;;;;;5120592;28;19910;-88
2022/07/28 02:43:43;;;;;;;;;;;22.00;50.60;;;;;;5120477;28;19960;-88
2022/07/28 02:46:11;;;;;;;;;;;22.10;50.60;;;;;;5120462;28;19907;-88
2022/07/28 02:48:38;;;;;;;;;;;22.00;50.50;;;;;;5120902;28;19907;-88
2022/07/28 02:51:05;;;;;;;;;;;21.90;50.60;;;;;;5121346;28;19904;-88
2022/07/28 02:53:32;;;;;;;;;;;21.90;50.80;;;;;;5121065;28;19960;-88
2022/07/28 02:55:57;;;;;;;;;;;21.90;50.70;;;;;;5122489;28;19930;-88
2022/07/28 02:58:24;;;;;;;;;;;21.90;50.80;;;;;;5121060;28;20285;-88
2022/07/28 03:00:50;;;;;;;;;;;21.90;50.70;;;;;;5121289;28;19903;-88
2022/07/28 03:03:17;;;;;;;;;;;21.90;50.60;;;;;;5121205;28;19903;-88
2022/07/28 03:05:43;;;;;;;;;;;21.80;50.70;;;;;;5121161;28;19913;-88
2022/07/28 03:08:09;;;;;;;;;;;21.80;50.70;;;;;;5120969;28;19998;-88
2022/07/28 03:10:35;;;;;;;;;;;21.80;50.70;;;;;;5121598;28;19950;-88
2022/07/28 03:13:02;;;;;;;;;;;21.80;50.70;;;;;;5121154;28;19904;-88
2022/07/28 03:15:28;;;;;;;;;;;21.80;50.70;;;;;;5138950;28;20002;-88
2022/07/28 03:17:53;;;;;;;;;;;21.80;50.70;;;;;;5120833;28;19954;-88
2022/07/28 03:20:19;;;;;;;;;;;21.80;50.80;;;;;;5120810;28;19956;-88
2022/07/28 03:22:57;;;;;;;;;;;21.70;50.80;;;;;;5120923;28;19907;-88
2022/07/28 03:25:33;;;;;;;;;;;21.60;51.00;;;;;;5120888;28;19908;-88
2022/07/28 03:27:59;;;;;;;;;;;21.60;51.10;;;;;;5120590;28;19997;-88
2022/07/28 03:30:26;;;;;;;;;;;21.60;51.00;;;;;;5120394;28;19950;-88
2022/07/28 03:32:57;;;;;;;;;;;21.70;51.00;;;;;;5120814;27;19915;-88
2022/07/28 03:35:23;;;;;;;;;;;21.70;50.90;;;;;;5141794;27;19911;-88
2022/07/28 03:37:57;;;;;;;;;;;21.60;50.70;;;;;;5124046;27;20003;-88
2022/07/28 03:40:25;;;;;;;;;;;21.60;50.90;;;;;;5124390;27;19998;-88
2022/07/28 03:42:51;;;;;;;;;;;21.70;51.00;;;;;;5124312;27;19953;-88
2022/07/28 03:45:17;;;;;;;;;;;21.60;51.00;;;;;;5124291;27;19951;-88
2022/07/28 03:47:54;;;;;;;;;;;21.60;51.00;;;;;;5141792;27;20207;-88
2022/07/28 03:50:44;;;;;;;;;;;21.50;50.90;;;;;;5123383;27;19908;-88
2022/07/28 03:53:21;;;;;;;;;;;21.40;51.20;;;;;;5122205;27;19914;-88
2022/07/28 03:55:49;;;;;;;;;;;21.50;51.30;;;;;;5123385;27;20235;-88
2022/07/28 03:58:18;;;;;;;;;;;21.50;51.20;;;;;;5123436;27;19917;-88
2022/07/28 04:00:43;;;;;;;;;;;21.50;51.10;;;;;;5141704;27;19904;-89
2022/07/28 04:03:09;;;;;;;;;;;21.50;51.10;;;;;;5123458;27;19971;-88
2022/07/28 04:05:35;;;;;;;;;;;21.60;51.10;;;;;;5123037;27;19968;-88
2022/07/28 04:08:00;;;;;;;;;;;21.60;51.10;;;;;;5123768;27;19904;-88
2022/07/28 04:10:26;;;;;;;;;;;21.70;51.00;;;;;;5122451;27;19904;-88
2022/07/28 04:12:54;;;;;;;;;;;21.70;51.00;;;;;;5123282;27;19903;-88
2022/07/28 04:15:20;;;;;;;;;;;21.70;51.00;;;;;;5123113;27;20263;-88
2022/07/28 04:17:47;;;;;;;;;;;21.70;51.00;;;;;;5123363;27;19911;-88
2022/07/28 04:20:13;;;;;;;;;;;21.70;51.00;;;;;;5122767;27;19903;-88
2022/07/28 04:22:48;;;;;;;;;;;21.60;51.00;;;;;;5122659;27;19914;-88
2022/07/28 04:25:15;;;;;;;;;;;21.60;51.10;;;;;;5122795;27;20200;-88
2022/07/28 04:27:41;;;;;;;;;;;21.60;51.10;;;;;;5123504;27;19911;-88
2022/07/28 04:30:09;;;;;;;;;;;21.60;51.20;;;;;;5123024;27;20268;-88
2022/07/28 04:32:37;;;;;;;;;;;21.60;51.10;;;;;;5141497;27;19903;-88
2022/07/28 04:35:03;;;;;;;;;;;21.60;51.10;;;;;;5123349;27;20048;-88
2022/07/28 04:37:28;;;;;;;;;;;21.50;51.10;;;;;;5123320;27;19943;-88
2022/07/28 04:39:54;;;;;;;;;;;21.60;51.20;;;;;;5122980;27;19997;-88
2022/07/28 04:42:21;;;;;;;;;;;21.60;51.10;;;;;;5122717;27;19943;-88
2022/07/28 04:44:46;;;;;;;;;;;21.60;51.10;;;;;;5122398;28;19907;-88
2022/07/28 04:47:12;;;;;;;;;;;21.70;51.10;;;;;;5122734;27;19970;-88
2022/07/28 04:49:38;;;;;;;;;;;21.60;51.20;;;;;;5123149;27;19903;-88
2022/07/28 04:52:07;;;;;;;;;;;21.60;51.20;;;;;;5122599;27;19968;-88
2022/07/28 04:54:33;;;;;;;;;;;21.60;51.20;;;;;;5122602;27;19904;-89
2022/07/28 04:56:58;;;;;;;;;;;21.50;51.40;;;;;;5122425;27;20002;-88
2022/07/28 04:59:24;;;;;;;;;;;21.30;51.60;;;;;;5121960;27;19903;-88
2022/07/28 05:01:50;;;;;;;;;;;21.20;51.90;;;;;;5121872;27;19903;-89
2022/07/28 05:04:16;;;;;;;;;;;21.30;51.90;;;;;;5122073;27;20181;-88
2022/07/28 05:06:42;;;;;;;;;;;21.30;51.80;;;;;;5121190;27;19903;-88
2022/07/28 05:09:07;;;;;;;;;;;21.40;51.60;;;;;;5121419;27;19968;-88
2022/07/28 05:11:33;;;;;;;;;;;21.50;51.50;;;;;;5119193;27;19903;-88
2022/07/28 05:13:58;;;;;;;;;;;21.50;51.60;;;;;;5118117;27;19907;-88
2022/07/28 05:16:24;;;;;;;;;;;21.50;51.50;;;;;;5118109;27;19914;-88
2022/07/28 05:18:49;;;;;;;;;;;21.50;51.50;;;;;;5118215;27;20135;-88
2022/07/28 05:21:15;;;;;;;;;;;21.60;51.40;;;;;;5118470;27;19908;-88
2022/07/28 05:23:40;;;;;;;;;;;21.70;51.40;;;;;;5118738;27;19907;-88
2022/07/28 05:26:06;;;;;;;;;;;21.60;51.40;;;;;;5117496;27;19964;-88
2022/07/28 05:28:32;;;;;;;;;;;21.70;51.40;;;;;;5135835;27;20317;-88
2022/07/28 05:30:58;;;;;;;;;;;21.80;51.30;;;;;;5134348;27;19903;-89
2022/07/28 05:33:24;;;;;;;;;;;21.90;51.20;;;;;;5116407;27;19926;-88
2022/07/28 05:35:52;;;;;;;;;;;21.90;51.10;;;;;;5115840;27;19907;-88
2022/07/28 05:38:18;;;;;;;;;;;22.00;51.00;;;;;;5116498;27;20130;-88
2022/07/28 05:40:44;;;;;;;;;;;22.10;51.00;;;;;;5117095;27;19914;-88
2022/07/28 05:43:09;;;;;;;;;;;22.10;51.00;;;;;;5117512;27;20415;-88
2022/07/28 05:45:35;;;;;;;;;;;22.20;50.70;;;;;;5116586;27;19907;-89
2022/07/28 05:48:01;;;;;;;;;;;22.30;50.80;;;;;;5117102;27;19913;-88
2022/07/28 05:50:26;;;;;;;;;;;22.30;50.70;;;;;;5117176;27;19907;-88
2022/07/28 05:52:52;;;;;;;;;;;22.40;50.60;;;;;;5118160;27;19998;-88
2022/07/28 05:55:17;;;;;;;;;;;22.30;50.80;;;;;;5117178;27;19947;-88
2022/07/28 05:57:43;;;;;;;;;;;22.30;50.60;;;;;;5116773;27;20218;-88
2022/07/28 06:00:24;;;;;;;;;;;22.20;50.80;;;;;;5118387;27;19907;-90
2022/07/28 06:02:50;;;;;;;;;;;22.30;50.60;;;;;;5117259;27;19946;-88
2022/07/28 06:05:18;;;;;;;;;;;22.40;50.60;;;;;;5116381;27;20157;-89
2022/07/28 06:07:44;;;;;;;;;;;22.60;50.50;;;;;;5117020;27;19911;-88
2022/07/28 06:10:11;;;;;;;;;;;22.80;50.30;;;;;;5116127;27;19903;-89
2022/07/28 06:12:40;;;;;;;;;;;23.00;50.10;;;;;;5115392;27;19914;-88
2022/07/28 06:15:07;;;;;;;;;;;23.10;49.90;;;;;;5116872;27;20284;-88
2022/07/28 06:17:32;;;;;;;;;;;23.10;49.90;;;;;;5116655;27;19923;-88
2022/07/28 06:19:58;;;;;;;;;;;23.20;49.80;;;;;;5115948;28;19908;-88
2022/07/28 06:22:23;;;;;;;;;;;23.30;49.70;;;;;;5117254;28;19964;-88
2022/07/28 06:24:49;;;;;;;;;;;23.50;49.60;;;;;;5115793;28;19908;-88
2022/07/28 06:27:15;;;;;;;;;;;23.50;49.50;;;;;;5115671;28;19910;-88
2022/07/28 06:29:40;;;;;;;;;;;23.60;49.20;;;;;;5114877;28;19958;-88
2022/07/28 06:32:06;;;;;;;;;;;23.70;49.20;;;;;;5116858;28;20003;-89
2022/07/28 06:34:32;;;;;;;;;;;23.90;49.00;;;;;;5113576;28;19904;-89
2022/07/28 06:36:57;;;;;;;;;;;24.00;48.50;;;;;;5132499;28;19903;-88
2022/07/28 06:39:26;;;;;;;;;;;24.20;48.70;;;;;;5113752;28;19910;-88
2022/07/28 06:41:51;;;;;;;;;;;24.20;48.90;;;;;;5114432;28;19904;-88
2022/07/28 06:44:18;;;;;;;;;;;24.30;48.60;;;;;;5116028;28;19919;-88
2022/07/28 06:46:43;;;;;;;;;;;24.30;48.50;;;;;;5114645;28;19904;-89
2022/07/28 06:49:09;;;;;;;;;;;24.60;48.30;;;;;;5115658;28;19917;-88
2022/07/28 06:51:35;;;;;;;;;;;24.70;48.30;;;;;;5114090;28;19911;-89
2022/07/28 06:54:01;;;;;;;;;;;24.90;47.90;;;;;;5114614;28;19903;-89
2022/07/28 06:56:26;;;;;;;;;;;25.10;47.70;;;;;;5115292;28;19903;-88
2022/07/28 06:58:52;;;;;;;;;;;25.40;47.40;;;;;;5115252;28;20413;-87
2022/07/28 07:01:17;;;;;;;;;;;25.80;47.10;;;;;;5114114;28;19915;-88
2022/07/28 07:03:43;;;;;;;;;;;26.40;46.70;;;;;;5113111;28;19907;-88
2022/07/28 07:06:09;;;;;;;;;;;27.10;46.00;;;;;;5114126;28;20080;-88
2022/07/28 07:08:35;;;;;;;;;;;27.60;45.50;;;;;;5116162;27;19904;-88
2022/07/28 07:11:00;;;;;;;;;;;28.30;45.10;;;;;;5117130;27;19904;-88
2022/07/28 07:13:27;;;;;;;;;;;28.90;44.20;;;;;;5118888;27;19903;-88
2022/07/28 07:15:53;;;;;;;;;;;29.00;43.70;;;;;;5118166;27;20188;-88
2022/07/28 07:18:19;;;;;;;;;;;28.40;43.80;;;;;;5118051;27;19921;-88
2022/07/28 07:20:44;;;;;;;;;;;28.00;44.20;;;;;;5116962;27;20098;-89
2022/07/28 07:23:10;;;;;;;;;;;27.70;44.40;;;;;;5118640;27;19914;-88
2022/07/28 07:25:36;;;;;;;;;;;27.80;44.40;;;;;;5118536;27;19985;-89
2022/07/28 07:28:01;;;;;;;;;;;28.00;44.20;;;;;;5117630;27;19910;-89
2022/07/28 07:30:27;;;;;;;;;;;28.30;44.10;;;;;;5118492;27;19903;-89
2022/07/28 07:32:53;;;;;;;;;;;29.10;43.70;;;;;;5118677;27;19913;-88
2022/07/28 07:35:18;;;;;;;;;;;29.60;43.10;;;;;;5117528;27;20060;-88
2022/07/28 07:37:44;;;;;;;;;;;30.10;42.80;;;;;;5118389;27;20341;-88
2022/07/28 07:40:10;;;;;;;;;;;29.90;42.60;;;;;;5116683;27;20200;-88
2022/07/28 07:42:35;;;;;;;;;;;30.30;42.60;;;;;;5117610;27;19967;-90
2022/07/28 07:45:01;;;;;;;;;;;30.70;42.20;;;;;;5117040;27;19914;-88
2022/07/28 07:47:27;;;;;;;;;;;31.00;41.90;;;;;;5116968;27;20265;-89
2022/07/28 07:49:52;;;;;;;;;;;31.10;41.80;;;;;;5132893;27;19908;-89
2022/07/28 07:52:18;;;;;;;;;;;31.40;41.70;;;;;;5133869;27;19914;-89
2022/07/28 07:54:44;;;;;;;;;;;31.50;41.50;;;;;;5115811;27;19935;-88
2022/07/28 07:57:10;;;;;;;;;;;31.80;41.20;;;;;;5115310;27;19963;-88
2022/07/28 07:59:35;;;;;;;;;;;32.00;41.10;;;;;;5116515;27;19915;-89
2022/07/28 08:02:01;;;;;;;;;;;32.00;41.00;;;;;;5135035;27;19918;-89
2022/07/28 08:04:27;;;;;;;;;;;32.10;40.90;;;;;;5133183;27;19907;-89
2022/07/28 08:06:53;;;;;;;;;;;32.20;40.70;;;;;;5134497;27;19914;-89
2022/07/28 08:09:18;;;;;;;;;;;32.40;40.50;;;;;;5117400;27;19987;-89
2022/07/28 08:11:44;;;;;;;;;;;32.70;40.50;;;;;;5117742;27;19911;-89
2022/07/28 08:14:10;;;;;;;;;;;32.80;40.30;;;;;;5117209;27;19972;-88
2022/07/28 08:16:36;;;;;;;;;;;32.70;40.20;;;;;;5117100;27;20002;-87
2022/07/28 08:19:02;;;;;;;;;;;32.80;40.10;;;;;;5116452;27;19929;-88
2022/07/28 08:21:28;;;;;;;3.30;1.50;;;32.90;40.20;;;;;;5115451;27;19904;-88
2022/07/28 08:23:54;;;;;;;3.35;1.85;;;33.10;40.10;;;;;;5133518;27;20205;-88
2022/07/28 08:26:24;;;;;;;1.95;1.40;;;33.30;40.00;;;;;;5114365;27;20166;-89
2022/07/28 08:28:51;;;;;;;6.95;2.05;;;33.40;39.80;;;;;;5115901;27;20169;-86
2022/07/28 08:31:20;;;;;;;2.38;1.50;;;33.60;39.60;;;;;;5132136;27;20455;-88
2022/07/28 08:33:49;;;;;;;2.17;1.30;;;33.60;39.60;;;;;;5114350;27;20173;-87
2022/07/28 08:36:15;;;;;;;1.30;1.20;;;33.70;39.50;;;;;;5114168;27;20177;-87
2022/07/28 08:38:41;;;;;;;2.67;1.48;;;33.80;39.50;;;;;;5113714;27;20272;-87
2022/07/28 08:41:25;;;;;;;2.50;1.40;;;33.90;39.20;;;;;;5133058;27;20256;-87
2022/07/28 08:43:53;;;;;;;3.70;1.60;;;34.10;39.30;;;;;;5115506;27;20257;-87
2022/07/28 08:46:20;;;;;;;2.55;1.40;;;34.20;39.20;;;;;;5132508;27;20578;-88
2022/07/28 08:48:47;;;;;;;3.95;1.40;;;34.10;39.10;;;;;;5116189;27;20181;-87
2022/07/28 08:51:14;;;;;;;1.75;1.30;;;34.10;39.30;;;;;;5115159;27;20166;-88
2022/07/28 08:53:41;;;;;;;5.15;1.88;;;34.10;39.20;;;;;;5115688;27;20181;-87
2022/07/28 08:56:10;;;;;;;3.03;1.42;;;34.20;39.20;;;;;;5115802;27;20262;-87
2022/07/28 08:58:37;;;;;;;5.93;1.40;;;34.30;39.10;;;;;;5134086;27;20201;-89
2022/07/28 09:01:06;;;;;;;3.10;1.52;;;34.30;39.00;;;;;;5116107;27;20177;-87
2022/07/28 09:03:32;;;;;;;5.28;1.60;;;34.30;39.00;;;;;;5115738;27;20229;-87
2022/07/28 09:05:57;;;;;;;1.73;1.35;;;34.30;38.80;;;;;;5114927;27;20173;-88
2022/07/28 09:08:24;;;;;;;3.63;1.50;;;34.40;39.00;;;;;;5114190;27;20197;-88
2022/07/28 09:10:50;;;;;;;2.08;1.48;;;34.40;38.80;;;;;;5114436;27;20554;-87
2022/07/28 09:13:16;;;;;;;2.65;1.60;;;34.30;38.80;;;;;;5114874;27;20570;-87
2022/07/28 09:15:44;;;;;;;3.80;1.83;;;34.30;38.80;;;;;;5114222;27;20174;-88
2022/07/28 09:18:11;;;;;;;3.00;1.40;;;34.30;38.20;;;;;;5114518;27;20451;-88
2022/07/28 09:20:37;;;;;;;3.17;1.40;;;34.40;38.60;;;;;;5114932;27;20555;-87
2022/07/28 09:23:05;;;;;;;1.60;1.50;;;34.30;38.70;;;;;;5133136;27;20448;-88
2022/07/28 09:25:32;;;;;;;2.95;1.60;;;34.30;38.90;;;;;;5115306;27;20368;-86
2022/07/28 09:28:08;;;;;;;1.55;1.30;;;34.30;39.00;;;;;;5113484;27;20207;-87
2022/07/28 09:30:40;;;;;;;2.95;1.38;;;34.00;39.00;;;;;;5115273;27;20212;-87
2022/07/28 09:33:21;;;;;;;3.00;1.40;;;33.80;39.20;;;;;;5115136;27;20323;-87
2022/07/28 09:35:53;;;;;;;2.38;1.33;;;33.40;39.10;;;;;;5114326;27;20174;-88
2022/07/28 09:38:22;;;;;;;4.70;1.80;;;32.90;39.50;;;;;;5115749;27;20227;-87
2022/07/28 09:41:07;;;;;;;1.98;1.30;;;32.10;39.20;;;;;;5114428;27;20352;-86
2022/07/28 09:43:36;;;;;;;4.78;1.38;;;31.60;40.20;;;;;;5113898;27;20381;-87
2022/07/28 09:46:14;;;;;;;3.95;1.40;;;31.20;40.60;;;;;;5113276;27;20366;-88
2022/07/28 09:48:48;;;;;;;2.25;1.38;;;30.90;40.90;;;;;;5131270;27;20418;-88
2022/07/28 09:51:17;;;;;;;3.63;1.30;;;30.50;40.90;;;;;;5112989;27;20215;-87
2022/07/28 09:53:43;;;;;;;3.35;1.60;;;30.40;41.40;;;;;;5112061;27;20173;-87
2022/07/28 09:56:10;;;;;;;2.90;1.40;;;30.20;40.80;;;;;;5113459;27;20184;-86
2022/07/28 09:58:37;;;;;;;5.20;1.55;;;29.90;40.80;;;;;;5113420;27;20169;-87
2022/07/28 10:01:10;;;;;;;1.67;1.33;;;29.70;41.10;;;;;;5112255;27;20633;-86
2022/07/28 10:03:37;;;;;;;5.15;1.70;;;29.40;41.30;;;;;;5112200;27;20231;-87
2022/07/28 10:06:07;;;;;;;3.83;1.73;;;29.20;40.40;;;;;;5112591;27;20172;-86
2022/07/28 10:08:48;;;;;;;2.90;1.60;;;28.90;40.70;;;;;;5112609;27;20228;-87
2022/07/28 10:11:16;;;;;;;3.53;1.48;;;29.00;41.60;;;;;;5112291;28;20238;-87
2022/07/28 10:14:01;;;;;;;3.05;1.33;;;29.00;41.70;;;;;;5112036;28;20169;-87
2022/07/28 10:16:58;;;;;;;2.75;1.40;;;29.00;41.90;;;;;;5113231;27;20169;-87
2022/07/28 10:19:24;;;;;;;3.28;1.38;;;29.00;42.20;;;;;;5096623;28;20204;-87
2022/07/28 10:21:53;;;;;;;6.32;1.75;;;28.80;42.40;;;;;;5113536;28;20327;-87
2022/07/28 10:24:25;;;;;;;3.38;1.40;;;28.80;41.10;;;;;;5112727;28;20669;-88
2022/07/28 10:26:53;;;;;;;3.83;1.43;;;28.60;42.20;;;;;;5112952;28;20447;-88
2022/07/28 10:29:20;;;;;;;2.97;1.40;;;28.60;42.20;;;;;;5112658;28;20173;-88
2022/07/28 10:31:56;;;;;;;4.50;1.90;;;28.50;42.60;;;;;;5113375;28;20223;-86
2022/07/28 10:34:32;;;;;;;5.95;1.70;;;28.30;41.20;;;;;;5112519;28;20176;-87
2022/07/28 10:37:03;;;;;;;2.40;1.27;;;28.30;42.80;;;;;;5113269;28;20461;-87
2022/07/28 10:39:40;;;;;;;2.85;1.40;;;28.30;42.60;;;;;;5130187;28;20180;-88
2022/07/28 10:42:10;;;;;;;4.43;1.52;;;28.20;42.30;;;;;;5130512;27;20169;-88
2022/07/28 10:44:38;;;;;;;2.10;1.50;;;28.30;42.60;;;;;;5115576;27;20463;-87
2022/07/28 10:47:08;;;;;;;3.93;1.83;;;28.20;42.20;;;;;;5115490;27;20228;-87
2022/07/28 10:49:38;;;;;;;2.22;1.48;;;28.20;42.60;;;;;;5116268;27;20169;-88
2022/07/28 10:52:05;;;;;;;6.53;1.63;;;28.10;42.50;;;;;;5116910;27;20176;-87
2022/07/28 10:54:35;;;;;;;1.93;1.30;;;28.10;43.00;;;;;;5116058;27;20173;-88
2022/07/28 10:57:03;;;;;;;2.23;1.23;;;28.10;43.20;;;;;;5115471;27;20169;-87
2022/07/28 10:59:42;;;;;;;3.17;1.40;;;28.00;43.50;;;;;;5114758;27;20237;-88
2022/07/28 11:02:59;;;;;;;7.30;1.53;;;28.00;43.50;;;;;;5115586;27;20453;-88
2022/07/28 11:05:31;;;;;;;3.07;1.40;;;28.00;43.50;;;;;;5096650;27;20551;-88
2022/07/28 11:08:05;;;;;;;2.33;1.30;;;27.90;42.30;;;;;;5115969;27;20268;-88
2022/07/28 11:10:47;;;;;;;1.53;1.23;;;27.90;43.30;;;;;;5113625;27;20504;-88
2022/07/28 11:13:39;;;;;;;2.23;1.50;;;28.00;43.70;;;;;;5114095;27;20276;-88
2022/07/28 11:16:14;;;;;;;4.07;1.50;;;27.90;43.80;;;;;;5128215;27;20242;-87
2022/07/28 11:19:05;;;;;;;1.57;1.10;;;27.90;43.80;;;;;;5116131;27;20209;-88
2022/07/28 11:21:32;;;;;;;3.27;1.40;;;27.90;43.80;;;;;;5115937;27;20200;-88
2022/07/28 11:23:58;;;;;;;2.30;1.23;;;27.90;44.00;;;;;;5115380;27;20213;-87
2022/07/28 11:26:24;;;;;;;5.13;1.57;;;27.80;44.00;;;;;;5114714;27;20238;-87
2022/07/28 11:28:59;;;;;;;2.27;1.40;;;27.80;43.50;;;;;;5115814;27;20172;-87
2022/07/28 11:31:43;;;;;;;2.53;1.60;;;27.80;44.10;;;;;;5113766;27;20165;-86
2022/07/28 11:34:20;;;;;;;3.17;1.60;;;27.70;42.60;;;;;;5131699;27;20255;-87
2022/07/28 11:37:08;;;;;;;4.40;1.63;;;27.70;42.90;;;;;;5116081;27;20252;-87
2022/07/28 11:39:41;;;;;;;3.97;1.70;;;27.70;43.30;;;;;;5115948;27;20180;-87
2022/07/28 11:42:29;;;;;;;3.13;1.30;;;27.60;42.60;;;;;;5114989;27;20180;-88
2022/07/28 11:44:56;;;;;;;1.20;1.10;;;27.50;43.40;;;;;;5113388;27;20419;-87
2022/07/28 11:47:27;;;;;;;6.37;1.90;;;27.50;43.70;;;;;;5131392;27;20204;-88
2022/07/28 11:50:12;;;;;;;5.43;1.60;;;27.50;43.10;;;;;;5114926;27;20166;-87
2022/07/28 11:52:50;;;;;;;3.57;1.50;;;27.50;43.40;;;;;;5113806;27;20166;-87
2022/07/28 11:55:17;;;;;;;2.53;1.50;;;27.50;44.00;;;;;;5112944;27;20188;-88
2022/07/28 11:57:45;;;;;;;3.57;1.40;;;27.50;44.10;;;;;;5113541;27;20221;-86
2022/07/28 12:00:18;;;;;;;4.03;1.50;;;27.50;43.80;;;;;;5113453;27;20184;-87
2022/07/28 12:02:44;;;;;;;1.93;1.30;;;27.50;44.00;;;;;;5113822;27;20275;-87
2022/07/28 12:05:11;;;;;;;3.37;1.50;;;27.50;44.30;;;;;;5114759;27;20201;-87
2022/07/28 12:07:43;;;;;;;2.80;1.40;;;27.50;44.10;;;;;;5115291;27;20177;-88
2022/07/28 12:10:25;;;;;;;1.67;1.27;;;27.50;44.50;;;;;;5113192;27;20169;-88
2022/07/28 12:12:59;;;;;;;2.47;1.27;;;27.50;44.60;;;;;;5114080;27;20197;-88
2022/07/28 12:15:25;;;;;;;2.50;1.30;;;27.50;44.70;;;;;;5112684;27;20184;-87
2022/07/28 12:17:51;;;;;;;4.17;1.43;;;27.50;44.00;;;;;;5113170;27;20185;-88
2022/07/28 12:20:18;;;;;;;5.00;1.57;;;27.50;44.50;;;;;;5113848;27;20176;-86
2022/07/28 12:23:04;;;;;;;4.37;1.80;;;27.40;43.70;;;;;;5133045;27;20165;-87
2022/07/28 12:25:40;;;;;;;2.63;1.20;;;27.30;43.30;;;;;;5112978;27;20202;-88
2022/07/28 12:28:24;;;;;;;1.50;1.23;;;27.40;44.60;;;;;;5113837;27;20184;-87
2022/07/28 12:30:50;;;;;;;3.93;1.60;;;27.40;44.70;;;;;;5114051;27;20166;-88
2022/07/28 12:33:22;;;;;;;1.30;1.20;;;27.40;44.70;;;;;;5113901;27;20559;-87
2022/07/28 12:35:51;;;;;;;3.23;1.40;;;27.40;44.70;;;;;;5114004;27;20173;-88
2022/07/28 12:38:21;;;;;;;3.77;1.70;;;27.40;44.50;;;;;;5114662;27;20174;-87
2022/07/28 12:40:46;;;;;;;2.57;1.33;;;27.50;44.70;;;;;;5113613;27;20569;-87
2022/07/28 12:43:21;;;;;;;6.00;1.70;;;27.50;44.60;;;;;;5131954;27;20170;-87
2022/07/28 12:45:48;;;;;;;3.37;1.60;;;27.50;43.80;;;;;;5131327;27;20417;-87
2022/07/28 12:48:19;;;;;;;3.80;1.30;;;27.40;44.00;;;;;;5114007;27;20166;-88
2022/07/28 12:50:46;;;;;;;3.53;1.47;;;27.50;44.50;;;;;;5112984;27;20196;-87
2022/07/28 12:53:13;;;;;;;3.03;1.60;;;27.50;44.60;;;;;;5112234;27;20234;-88
2022/07/28 12:55:42;;;;;;;3.90;1.33;;;27.50;44.10;;;;;;5113492;27;20448;-88
2022/07/28 12:58:22;;;;;;;2.77;1.47;;;27.50;44.50;;;;;;5131949;27;20184;-87
2022/07/28 13:00:49;;;;;;;1.57;1.30;;;27.50;44.80;;;;;;5131960;27;20570;-87
2022/07/28 13:03:27;;;;;;;4.63;1.40;;;27.50;44.80;;;;;;5113168;27;20173;-87
2022/07/28 13:06:01;;;;;;;1.93;1.10;;;27.50;44.70;;;;;;5112727;28;20208;-87
2022/07/28 13:08:35;;;;;;;2.67;1.53;;;27.50;44.50;;;;;;5112731;27;20169;-87
2022/07/28 13:11:01;;;;;;;2.77;1.50;;;27.50;44.00;;;;;;5113365;27;20354;-88
2022/07/28 13:13:27;;;;;;;2.43;1.23;;;27.50;44.40;;;;;;5111824;27;20250;-88
2022/07/28 13:16:13;;;;;;;1.97;1.00;;;27.50;44.90;;;;;;5113964;27;20166;-91
2022/07/28 13:18:40;;;;;;;2.80;1.40;;;27.50;44.90;;;;;;5111478;27;20484;-88
2022/07/28 13:21:06;;;;;;;2.03;1.30;;;27.40;43.40;;;;;;5112985;27;20432;-88
2022/07/28 13:23:31;;;;;;;2.43;1.40;;;27.40;44.40;;;;;;5113267;27;20189;-89
2022/07/28 13:25:57;;;;;;;2.40;1.40;;;27.50;44.70;;;;;;5112678;27;20565;-88
2022/07/28 13:28:25;;;;;;;2.30;1.40;;;27.50;44.80;;;;;;5112906;27;20208;-88
2022/07/28 13:30:51;;;;;;;4.20;1.50;;;27.50;44.90;;;;;;5112810;27;20599;-89
2022/07/28 13:33:17;;;;;;;2.03;1.33;;;27.50;44.90;;;;;;5112390;27;20169;-88
2022/07/28 13:35:43;;;;;;;2.03;1.20;;;27.50;44.30;;;;;;5111149;27;20214;-89
2022/07/28 13:38:09;;;;;;;3.07;1.80;;;27.50;44.80;;;;;;5112452;27;20165;-87
2022/07/28 13:40:35;;;;;;;3.23;1.40;;;27.40;43.50;;;;;;5112306;27;20165;-88
2022/07/28 13:43:00;;;;;;;2.30;1.17;;;27.30;43.90;;;;;;5129852;27;20223;-88
2022/07/28 13:45:26;;;;;;;2.77;1.40;;;27.20;45.00;;;;;;5112122;27;20255;-88
2022/07/28 13:47:52;;;;;;;5.23;1.50;;;27.20;44.90;;;;;;5112053;27;20165;-88
2022/07/28 13:50:18;;;;;;;2.30;1.20;;;27.20;44.80;;;;;;5111754;27;20197;-88
2022/07/28 13:52:44;;;;;;;3.17;1.40;;;27.20;44.70;;;;;;5111442;27;20216;-88